Stella W. — WDG5429 — position and weather

sailwx.info

Track history (hours):
 
Tides and Currents Weather Stations Pressure Air Temp Water Temp Dewpoint Dewpoint Depression Visibility Wind Speed Wind Dir Waves Ship Positions

Stella W.

Owner: T & M Boat Rentals, Berwick, LA. More information available from US FCC via Universal Licensing System and Coast Guard Vessel Documentation Center.

Last reported at 2018-Jan-11 23:19 UTC. Time now 2018-Feb-23 16:23 UTC.
Position N 29°36' W 090°58'.
Warning: this ship's position is 42 days out of date.

Length 16 m; draft 5.7 m.

Type: Towing. MMSI: 367546570.

Date/timePositionNaut miles runAvg speedWind from/ knotsBaromVisibWave heightAir tempDewpointWater temp
2018-Jan-11 23:19N 29°36' W 090°58'2 6.0
2018-Jan-11 23:00N 29°34' W 090°57'3 6.3
2018-Jan-11 22:29N 29°33' W 090°53'3 6.2
2018-Jan-11 22:00N 29°32' W 090°50'3 6.4
2018-Jan-11 21:31N 29°32' W 090°46'3 5.5
2018-Jan-11 21:00N 29°34' W 090°44'3 5.2
2018-Jan-11 20:31N 29°36' W 090°43'2 4.9
2018-Jan-11 20:01N 29°36' W 090°40'3 6.3
2018-Jan-11 19:30N 29°35' W 090°37'3 5.2
2018-Jan-11 19:00N 29°34' W 090°34'  
Track history (hours):
 
Tides and Currents Weather Stations Pressure Air Temp Water Temp Dewpoint Dewpoint Depression Visibility Wind Speed Wind Dir Waves Ship Positions

Stella W.

Owner: T & M Boat Rentals, Berwick, LA. More information available from US FCC via Universal Licensing System and Coast Guard Vessel Documentation Center.

Last reported at 2018-Jan-11 23:19 UTC. Time now 2018-Feb-23 16:23 UTC.
Position N 29°36' W 090°58'.
Warning: this ship's position is 42 days out of date.

Length 16 m; draft 5.7 m.

Type: Towing. MMSI: 367546570.

Date/timePositionNaut miles runAvg speedWind from/ knotsBaromVisibWave heightAir tempDewpointWater temp
2018-Jan-11 23:19N 29°36' W 090°58'2 6.0
2018-Jan-11 23:00N 29°34' W 090°57'3 6.3
2018-Jan-11 22:29N 29°33' W 090°53'3 6.2
2018-Jan-11 22:00N 29°32' W 090°50'3 6.4
2018-Jan-11 21:31N 29°32' W 090°46'3 5.5
2018-Jan-11 21:00N 29°34' W 090°44'3 5.2
2018-Jan-11 20:31N 29°36' W 090°43'2 4.9
2018-Jan-11 20:01N 29°36' W 090°40'3 6.3
2018-Jan-11 19:30N 29°35' W 090°37'3 5.2
2018-Jan-11 19:00N 29°34' W 090°34'  

Dump ship's entire track history